Time;durP1;ratioP1;P1;durP2;ratioP2;P2;SDS_P1;SDS_P2;PMS_P1;PMS_P2;Temp;Humidity;BMP_temperature;BMP_pressure;BME280_temperature;BME280_humidity;BME280_pressure;Samples;Min_cycle;Max_cycle;Signal;HPM_P1;HPM_P2
2023/08/01 00:01:09;;;;;;;11.02;8.02;;;;;;;16.46;100.00;99782.69;5080495;28;20048;-90
2023/08/01 00:03:50;;;;;;;9.57;7.35;;;;;;;16.44;100.00;99769.38;5059499;28;20037;-90
2023/08/01 00:06:21;;;;;;;10.77;7.10;;;;;;;16.55;100.00;99784.19;5058685;28;20056;-89
2023/08/01 00:08:57;;;;;;;9.83;7.17;;;;;;;16.51;100.00;99770.06;5039515;28;20472;-88
2023/08/01 00:11:24;;;;;;;9.30;6.97;;;;;;;16.39;100.00;99751.78;5055916;28;20021;-90
2023/08/01 00:13:55;;;;;;;10.73;6.78;;;;;;;16.43;100.00;99767.63;5039316;28;20033;-90
2023/08/01 00:16:48;;;;;;;9.55;6.78;;;;;;;16.48;100.00;99772.84;5056862;28;20025;-89
2023/08/01 00:19:29;;;;;;;9.68;6.90;;;;;;;16.47;100.00;99761.28;5038836;28;20090;-90
2023/08/01 00:22:00;;;;;;;11.25;6.68;;;;;;;16.39;100.00;99751.78;5057477;28;20117;-90
2023/08/01 00:24:35;;;;;;;13.68;6.80;;;;;;;16.42;100.00;99765.91;5039670;28;20025;-90
2023/08/01 00:27:28;;;;;;;;;;;;;;;;;;;;;
2023/08/01 00:30:02;;;;;;;11.70;6.97;;;;;;;16.30;100.00;99738.75;5058573;28;20448;-89
2023/08/01 00:32:40;;;;;;;;;;;;;;;;;;;;;
2023/08/01 00:35:18;;;;;;;13.30;6.80;;;;;;;16.63;100.00;99800.84;5057601;28;20150;-89
2023/08/01 00:37:55;;;;;;;8.68;6.35;;;;;;;16.30;100.00;99739.59;5039098;28;20033;-89
2023/08/01 00:40:30;;;;;;;11.52;7.05;;;;;;;16.41;100.00;99760.63;5043224;28;20025;-89
2023/08/01 00:43:05;;;;;;;11.55;6.70;;;;;;;16.24;100.00;99723.81;5039042;28;20350;-90
2023/08/01 00:45:41;;;;;;;9.63;6.65;;;;;;;16.34;100.00;99743.06;5055546;28;20023;-89
2023/08/01 00:48:25;;;;;;;10.48;6.55;;;;;;;16.57;100.00;99793.88;5038670;28;20373;-89
2023/08/01 00:50:56;;;;;;;11.35;6.80;;;;;;;16.27;100.00;99743.25;5038152;28;20037;-89
2023/08/01 00:53:45;;;;;;;12.05;6.82;;;;;;;16.35;100.00;99758.13;5056891;28;20083;-89
2023/08/01 00:56:27;;;;;;;11.07;6.65;;;;;;;16.23;100.00;99738.03;5055793;28;20104;-89
2023/08/01 00:59:07;;;;;;;;;;;;;;;;;;;;;
2023/08/01 01:01:38;;;;;;;11.05;5.75;;;;;;;16.12;100.00;99742.84;5055407;28;20049;-89
2023/08/01 01:04:07;;;;;;;13.48;7.38;;;;;;;16.43;100.00;99799.63;5055583;28;20068;-89
2023/08/01 01:07:06;;;;;;;9.90;6.80;;;;;;;16.41;100.00;99801.50;5037719;28;20083;-89
2023/08/01 01:09:56;;;;;;;11.18;6.50;;;;;;;16.16;100.00;99747.16;5041980;28;20067;-89
2023/08/01 01:12:59;;;;;;;11.52;6.32;;;;;;;16.03;100.00;99728.88;5043059;28;20086;-89
2023/08/01 01:15:49;;;;;;;14.82;6.82;;;;;;;16.03;100.00;99728.00;5060403;28;20064;-90
2023/08/01 01:18:19;;;;;;;11.77;6.57;;;;;;;16.01;100.00;99736.00;5060193;28;20029;-89
2023/08/01 01:20:49;;;;;;;11.68;6.57;;;;;;;16.10;100.00;99750.00;5044028;28;20032;-90
2023/08/01 01:23:35;;;;;;;12.65;6.53;;;;;;;16.09;100.00;99751.78;5064119;28;20032;-89
2023/08/01 01:26:04;;;;;;;12.48;6.85;;;;;;;15.97;100.00;99734.38;5060327;28;20037;-89
2023/08/01 01:28:46;;;;;;;11.23;6.97;;;;;;;16.17;100.00;99776.41;5045785;28;20029;-89
2023/08/01 01:31:19;;;;;;;10.80;6.43;;;;;;;16.04;100.00;99753.72;5063314;28;20025;-90
2023/08/01 01:33:53;;;;;;;10.35;6.40;;;;;;;16.02;100.00;99756.44;5061806;28;20033;-89
2023/08/01 01:36:41;;;;;;;11.55;5.90;;;;;;;15.99;100.00;99745.00;5028839;28;20033;-89
2023/08/01 01:39:11;;;;;;;15.13;6.63;;;;;;;15.94;100.00;99742.47;5061234;28;20035;-88
2023/08/01 01:42:13;;;;;;;;;;;;;;;;;;;;;
2023/08/01 01:44:44;;;;;;;12.47;6.67;;;;;;;15.96;100.00;99761.94;5060398;28;20107;-90
2023/08/01 01:47:12;;;;;;;14.60;6.60;;;;;;;15.96;100.00;99761.94;5060434;28;20021;-89
2023/08/01 01:49:38;;;;;;;11.40;5.95;;;;;;;15.98;100.00;99767.22;5060280;28;20617;-89
2023/08/01 01:52:24;;;;;;;11.93;6.30;;;;;;;15.83;100.00;99743.69;5061466;28;20033;-89
2023/08/01 01:55:07;;;;;;;10.45;6.13;;;;;;;15.90;100.00;99755.91;5064510;28;20080;-90
2023/08/01 01:57:36;;;;;;;12.65;6.72;;;;;;;15.86;100.00;99757.78;5047708;28;20025;-89
2023/08/01 02:00:10;;;;;;;11.88;6.50;;;;;;;15.98;100.00;99780.56;5046724;28;20020;-88
2023/08/01 02:02:36;;;;;;;11.68;6.53;;;;;;;15.67;100.00;99725.47;5043664;28;20047;-90
2023/08/01 02:05:09;;;;;;;14.27;6.57;;;;;;;15.63;100.00;99723.78;5066894;28;20029;-89
2023/08/01 02:07:44;;;;;;;11.60;6.53;;;;;;;15.64;100.00;99724.66;5030326;28;20132;-89
2023/08/01 02:10:26;;;;;;;13.90;6.85;;;;;;;15.66;100.00;99734.38;5064015;28;20119;-89
2023/08/01 02:13:04;;;;;;;13.65;7.00;;;;;;;15.59;100.00;99734.53;5049307;28;20033;-89
2023/08/01 02:15:34;;;;;;;14.38;7.00;;;;;;;15.46;100.00;99718.91;5065250;28;20051;-89
2023/08/01 02:18:07;;;;;;;12.80;7.10;;;;;;;15.77;100.00;99769.56;5064451;28;20028;-89
2023/08/01 02:20:54;;;;;;;;;;;;;;;;;;;;;
2023/08/01 02:23:29;;;;;;;14.77;7.55;;;;;;;15.35;100.00;99720.13;5063396;28;20492;-89
2023/08/01 02:26:22;;;;;;;18.38;7.22;;;;;;;15.36;100.00;99721.84;5035859;28;20021;-89
2023/08/01 02:28:57;;;;;;;13.70;7.57;;;;;;;15.50;100.00;99756.97;5035916;28;20441;-90
2023/08/01 02:31:32;;;;;;;17.02;8.57;;;;;;;15.23;100.00;99716.00;5035757;28;20036;-90
2023/08/01 02:34:22;;;;;;;13.52;7.63;;;;;;;15.50;100.00;99765.84;5035692;28;20424;-89
2023/08/01 02:36:53;;;;;;;16.58;8.15;;;;;;;15.48;100.00;99764.13;5035426;28;20117;-89
2023/08/01 02:39:20;;;;;;;14.52;8.73;;;;;;;15.25;100.00;99731.00;5053559;28;20110;-89
2023/08/01 02:41:56;;;;;;;15.38;8.00;;;;;;;15.44;100.00;99760.66;5035464;28;20025;-89
2023/08/01 02:44:26;;;;;;;19.08;8.85;;;;;;;15.28;100.00;99740.69;5035464;28;20029;-89
2023/08/01 02:46:59;;;;;;;14.77;9.23;;;;;;;15.28;100.00;99748.66;5051717;28;20036;-90
2023/08/01 02:49:30;;;;;;;19.38;9.80;;;;;;;15.44;100.00;99767.78;5035394;28;20025;-89
2023/08/01 02:52:28;;;;;;;17.83;9.68;;;;;;;15.29;100.00;99753.09;5053237;28;20082;-89
2023/08/01 02:55:06;;;;;;;18.45;10.30;;;;;;;15.35;100.00;99758.25;5035714;28;20365;-89
2023/08/01 02:57:34;;;;;;;21.15;10.57;;;;;;;15.26;100.00;99750.50;5053255;28;20091;-89
2023/08/01 03:00:05;;;;;;;23.23;11.48;;;;;;;15.45;100.00;99775.72;5035531;28;20407;-89
2023/08/01 03:02:48;;;;;;;23.10;11.98;;;;;;;15.29;100.00;99750.44;5035059;28;20048;-90
2023/08/01 03:05:24;;;;;;;23.33;11.48;;;;;;;15.47;100.00;99773.91;5035644;28;20082;-89
2023/08/01 03:07:52;;;;;;;17.70;11.18;;;;;;;15.25;100.00;99744.31;5052990;28;20060;-89
2023/08/01 03:10:35;;;;;;;;;;;;;;;;;;;;;
2023/08/01 03:13:27;;;;;;;20.60;11.75;;;;;;;15.19;100.00;99733.81;5036680;28;20021;-89
2023/08/01 03:16:10;;;;;;;19.73;11.75;;;;;;;15.51;100.00;99782.69;5050714;28;20036;-89
2023/08/01 03:18:35;;;;;;;23.75;12.27;;;;;;;15.18;100.00;99729.41;5005021;28;20041;-89
2023/08/01 03:21:08;;;;;;;22.27;12.23;;;;;;;15.19;100.00;99738.28;5053265;28;20032;-90
2023/08/01 03:23:50;;;;;;;20.80;11.93;;;;;;;15.51;100.00;99785.34;5035210;28;20039;-89
2023/08/01 03:26:28;;;;;;;;;;;;;;;;;;;;;
2023/08/01 03:29:04;;;;;;;22.27;12.43;;;;;;;15.37;100.00;99760.88;5053433;28;20025;-91
2023/08/01 03:31:47;;;;;;;21.33;12.65;;;;;;;15.16;100.00;99733.03;5053233;28;20033;-90
2023/08/01 03:34:22;;;;;;;20.05;13.20;;;;;;;15.50;100.00;99783.59;5054852;28;20132;-89
2023/08/01 03:36:57;;;;;;;21.70;13.48;;;;;;;15.15;100.00;99725.94;5056313;28;20033;-90
2023/08/01 03:39:23;;;;;;;23.42;13.07;;;;;;;15.21;100.00;99740.00;5042066;28;20435;-91
2023/08/01 03:41:51;;;;;;;21.55;14.15;;;;;;;15.53;100.00;99800.34;5071636;28;20064;-90
2023/08/01 03:44:19;;;;;;;24.25;13.93;;;;;;;15.56;100.00;99796.75;5067651;28;20028;-89
2023/08/01 03:46:55;;;;;;;;;;;;;;;;;;;;;
2023/08/01 03:49:31;;;;;;;;;;;;;;;;;;;;;
2023/08/01 03:52:04;;;;;;;29.50;14.90;;;;;;;15.43;100.00;99777.56;5069485;28;20056;-89
2023/08/01 03:54:54;;;;;;;25.73;15.32;;;;;;;15.37;100.00;99758.19;5021741;28;20048;-90
2023/08/01 03:57:24;;;;;;;27.45;15.85;;;;;;;15.24;100.00;99742.53;5039819;28;20028;-90
2023/08/01 04:00:03;;;;;;;26.55;17.45;;;;;;;15.45;100.00;99783.72;5051374;28;20045;-90
2023/08/01 04:02:42;;;;;;;27.58;15.80;;;;;;;15.35;100.00;99768.91;5056711;28;20144;-89
2023/08/01 04:05:19;;;;;;;28.15;16.30;;;;;;;15.19;100.00;99736.47;5039884;28;20085;-89
2023/08/01 04:07:58;;;;;;;;;;;;;;;;;;;;;
2023/08/01 04:10:24;;;;;;;29.77;17.13;;;;;;;15.41;100.00;99773.19;5039645;28;20032;-90
2023/08/01 04:12:59;;;;;;;34.10;17.30;;;;;;;15.24;100.00;99744.34;5055824;28;20028;-90
2023/08/01 04:15:45;;;;;;;29.80;17.33;;;;;;;15.28;100.00;99748.66;5021523;28;20025;-90
2023/08/01 04:18:16;;;;;;;29.65;17.38;;;;;;;15.42;100.00;99769.63;5056183;28;20028;-89
2023/08/01 04:20:59;;;;;;;23.80;16.30;;;;;;;15.23;100.00;99738.16;5022023;28;20464;-89
2023/08/01 04:23:31;;;;;;;28.88;17.13;;;;;;;15.33;100.00;99756.53;5055804;28;20029;-90
2023/08/01 04:26:06;;;;;;;34.42;17.25;;;;;;;15.23;100.00;99740.81;5038941;28;20097;-90
2023/08/01 04:28:43;;;;;;;28.38;16.98;;;;;;;15.29;100.00;99747.78;5042147;28;20430;-90
2023/08/01 04:31:20;;;;;;;30.58;17.50;;;;;;;15.48;100.00;99778.31;5038445;28;20029;-89
2023/08/01 04:33:46;;;;;;;31.38;17.00;;;;;;;15.47;100.00;99776.56;5037903;28;20082;-90
2023/08/01 04:39:07;;;;;;;25.33;16.83;;;;;;;15.55;100.00;99779.03;5054832;28;20036;-89
2023/08/01 04:41:33;;;;;;;34.55;17.50;;;;;;;15.38;100.00;99757.31;5037319;28;20059;-89
2023/08/01 04:44:08;;;;;;;34.03;16.92;;;;;;;15.53;100.00;99786.19;5055668;28;20148;-89
2023/08/01 04:46:41;;;;;;;28.50;16.92;;;;;;;15.41;100.00;99763.41;5055043;28;20025;-89
2023/08/01 04:49:26;;;;;;;29.02;17.33;;;;;;;15.52;100.00;99787.09;5038061;28;20040;-89
2023/08/01 04:52:17;;;;;;;29.95;16.63;;;;;;;15.68;100.00;99809.78;5055045;28;20028;-89
2023/08/01 04:55:06;;;;;;;27.73;16.05;;;;;;;15.37;100.00;99761.72;5015567;28;20041;-89
2023/08/01 04:57:36;;;;;;;28.13;16.45;;;;;;;15.41;100.00;99771.38;5054866;28;20039;-90
2023/08/01 05:00:17;;;;;;;31.30;16.88;;;;;;;15.52;100.00;99787.09;5055085;28;20032;-89
2023/08/01 05:02:52;;;;;;;32.72;17.45;;;;;;;15.73;100.00;99821.19;5021464;28;20087;-87
2023/08/01 05:05:33;;;;;;;30.42;16.35;;;;;;;15.44;100.00;99773.13;5021341;28;20076;-88
2023/08/01 05:08:22;;;;;;;26.35;15.93;;;;;;;15.58;100.00;99786.06;5021681;28;20059;-89
2023/08/01 05:10:50;;;;;;;27.85;15.73;;;;;;;15.54;100.00;99785.25;5055015;28;20032;-89
2023/08/01 05:13:26;;;;;;;30.95;17.40;;;;;;;15.40;100.00;99766.13;5036907;28;20031;-88
2023/08/01 05:15:56;;;;;;;28.55;16.42;;;;;;;15.69;100.00;99818.63;5054680;28;20031;-88
2023/08/01 05:18:21;;;;;;;29.60;16.85;;;;;;;15.36;100.00;99767.09;5036894;28;20029;-87
2023/08/01 05:20:52;;;;;;;25.90;15.20;;;;;;;15.59;100.00;99804.66;5036666;28;20036;-87
2023/08/01 05:23:17;;;;;;;28.77;15.88;;;;;;;15.48;100.00;99791.63;5036671;28;20432;-86
2023/08/01 05:25:45;;;;;;;32.33;16.52;;;;;;;15.70;100.00;99828.38;5036412;28;20128;-86
2023/08/01 05:28:20;;;;;;;28.60;16.30;;;;;;;15.37;100.00;99761.72;5054713;28;20025;-86
2023/08/01 05:30:48;;;;;;;25.25;15.63;;;;;;;15.38;100.00;99776.81;5054193;28;20032;-87
2023/08/01 05:33:31;;;;;;;25.20;14.63;;;;;;;15.57;100.00;99816.25;5054549;28;20483;-87
2023/08/01 05:36:12;;;;;;;24.63;15.73;;;;;;;15.31;100.00;99763.69;5021030;28;20428;-89
2023/08/01 05:38:40;;;;;;;28.27;15.70;;;;;;;15.48;100.00;99809.38;5036310;28;20028;-88
2023/08/01 05:41:41;;;;;;;29.67;15.25;;;;;;;15.24;100.00;99774.47;5054196;28;20453;-88
2023/08/01 05:44:21;;;;;;;26.38;14.45;;;;;;;15.27;100.00;99773.53;5026920;28;20116;-89
2023/08/01 05:46:50;;;;;;;24.90;14.40;;;;;;;15.58;100.00;99833.97;5055222;28;20024;-89
2023/08/01 05:49:28;;;;;;;;;;;;;;;;;;;;;
2023/08/01 05:52:03;;;;;;;24.73;15.00;;;;;;;15.51;100.00;99810.19;5039441;28;20456;-89
2023/08/01 05:54:39;;;;;;;25.83;14.75;;;;;;;15.49;100.00;99771.19;5039764;28;20033;-89
2023/08/01 05:57:36;;;;;;;;;;;;;;;;;;;;;
2023/08/01 06:00:05;;;;;;;25.15;14.60;;;;;;;15.80;100.00;99816.53;5064020;28;20528;-89
2023/08/01 06:02:40;;;;;;;21.20;13.50;;;;;;;15.92;100.00;99832.19;5032273;28;20049;-89
2023/08/01 06:05:13;;;;;;;24.95;14.13;;;;;;;15.85;100.00;99805.78;5044655;28;20053;-90
2023/08/01 06:07:41;;;;;;;23.88;14.23;;;;;;;15.95;100.00;99825.94;5027164;28;20453;-89
2023/08/01 06:10:21;;;;;;;;;;;;;;;;;;;;;
2023/08/01 06:13:09;;;;;;;26.30;13.02;;;;;;;16.10;100.00;99843.25;5041037;28;20085;-90
2023/08/01 06:19:08;;;;;;;24.83;13.10;;;;;;;16.20;100.00;99850.97;5033913;28;20068;-91
2023/08/01 06:22:04;;;;;;;;;;;;;;;;;;;;;
2023/08/01 06:24:35;;;;;;;28.02;12.80;;;;;;;15.96;100.00;99793.91;5019840;28;20029;-91
2023/08/01 06:27:01;;;;;;;20.17;12.60;;;;;;;16.24;100.00;99825.09;5016592;28;20459;-91
2023/08/01 06:29:49;;;;;;;19.33;11.43;;;;;;;16.15;100.00;99801.38;5033420;28;20025;-89
2023/08/01 06:32:14;;;;;;;18.63;10.40;;;;;;;16.15;100.00;99804.94;5001558;28;20026;-89
2023/08/01 06:35:08;;;;;;;24.95;10.60;;;;;;;16.39;100.00;99837.09;5015862;28;20496;-89
2023/08/01 06:37:59;;;;;;;17.85;10.95;;;;;;;16.46;100.00;99833.34;5018872;28;20034;-89
2023/08/01 06:43:40;;;;;;;;;;;;;;;;;;;;;
2023/08/01 06:46:24;;;;;;;20.98;11.05;;;;;;;16.39;100.00;99824.66;5033656;28;20456;-89
2023/08/01 06:49:10;;;;;;;20.17;11.10;;;;;;;16.70;100.00;99861.06;5000447;28;20033;-90
2023/08/01 06:52:00;;;;;;;19.15;11.80;;;;;;;16.60;100.00;99828.47;4986011;28;20025;-90
2023/08/01 06:54:33;;;;;;;17.15;11.27;;;;;;;16.86;100.00;99845.50;5016541;28;20103;-90
2023/08/01 06:57:09;;;;;;;;;;;;;;;;;;;;;
2023/08/01 06:59:54;;;;;;;18.58;10.40;;;;;;;17.21;100.00;99836.38;5033512;28;20140;-89
2023/08/01 07:02:37;;;;;;;16.88;10.07;;;;;;;17.48;100.00;99840.81;5008818;28;20076;-89
2023/08/01 07:05:24;;;;;;;16.85;9.68;;;;;;;17.55;100.00;99849.47;5032890;28;20386;-89
2023/08/01 07:08:05;;;;;;;;;;;;;;;;;;;;;
2023/08/01 07:10:42;;;;;;;17.15;9.25;;;;;;;17.72;100.00;99884.50;5033001;28;20035;-90
2023/08/01 07:13:14;;;;;;;18.45;8.77;;;;;;;17.47;100.00;99857.78;5033182;28;20025;-89
2023/08/01 07:15:58;;;;;;;18.05;8.70;;;;;;;17.56;100.00;99887.75;5015281;28;20480;-89
2023/08/01 07:18:40;;;;;;;13.85;8.77;;;;;;;17.27;100.00;99834.38;5032653;28;20021;-90
2023/08/01 07:21:16;;;;;;;16.08;8.60;;;;;;;17.43;100.00;99841.88;5015268;28;20083;-89
2023/08/01 07:24:10;;;;;;;15.10;9.05;;;;;;;17.79;100.00;99887.03;5015202;28;20025;-94
2023/08/01 07:26:50;;;;;;;14.40;8.52;;;;;;;17.79;100.00;99868.31;5031515;28;20087;-87
2023/08/01 07:29:20;;;;;;;19.17;8.00;;;;;;;17.74;100.00;99829.25;5031407;28;20026;-89
2023/08/01 07:31:58;;;;;;;;;;;;;;;;;;;;;
2023/08/01 07:34:34;;;;;;;18.17;8.10;;;;;;;18.48;100.00;99880.94;5036967;28;20033;-89
2023/08/01 07:37:28;;;;;;;15.75;7.15;;;;;;;18.59;100.00;99887.72;5018707;28;20038;-88
2023/08/01 07:40:23;;;;;;;17.67;6.28;;;;;;;18.38;100.00;99836.75;5018380;28;20036;-88
2023/08/01 07:43:12;;;;;;;17.35;6.78;;;;;;;18.42;100.00;99848.22;5012623;28;20033;-87
2023/08/01 07:46:01;;;;;;;13.90;6.55;;;;;;;18.36;100.00;99846.63;5028388;28;20222;-87
2023/08/01 07:48:53;;;;;;;13.95;6.28;;;;;;;18.30;98.28;99849.53;5036219;28;20033;-87
2023/08/01 07:51:29;;;;;;;12.55;5.78;;;;;;;18.45;99.69;99891.75;5019607;28;20053;-87
2023/08/01 07:54:04;;;;;;;17.25;6.72;;;;;;;18.05;98.99;99848.69;5019396;28;20037;-87
2023/08/01 07:56:49;;;;;;;;;;;;;;;;;;;;;
2023/08/01 07:59:57;;;;;;;11.75;6.28;;;;;;;17.91;100.00;99849.19;5035246;28;20026;-88
2023/08/01 08:02:43;;;;;;;12.20;5.60;;;;;;;18.21;100.00;99868.59;5047872;28;20095;-89
2023/08/01 08:05:18;;;;;;;12.23;5.28;;;;;;;18.23;98.53;99850.69;5053920;28;20024;-86
2023/08/01 08:08:07;;;;;;;9.80;4.82;;;;;;;18.65;98.52;99892.84;5015370;28;20036;-84
2023/08/01 08:10:45;;;;;;;;;;;;;;;;;;;;;
2023/08/01 08:13:18;;;;;;;9.43;3.90;;;;;;;18.30;94.32;99854.91;5036067;28;20036;-84
2023/08/01 08:15:55;;;;;;;13.55;4.35;;;;;;;18.58;95.05;99904.69;5018262;28;20507;-84
2023/08/01 08:18:23;;;;;;;11.13;4.20;;;;;;;18.62;95.02;99884.91;5018092;28;20033;-85
2023/08/01 08:20:54;;;;;;;9.57;4.32;;;;;;;18.95;94.40;99907.75;5035658;28;20483;-85
2023/08/01 08:23:22;;;;;;;10.82;4.07;;;;;;;19.01;91.48;99871.81;5036108;28;20041;-84
2023/08/01 08:25:52;;;;;;;11.57;4.65;;;;;;;19.25;89.43;99888.72;5035403;28;20032;-85
2023/08/01 08:28:29;;;;;;;11.40;4.53;;;;;;;19.24;91.16;99878.97;5035904;28;20022;-85
2023/08/01 08:30:57;;;;;;;11.15;4.32;;;;;;;19.40;89.70;99873.81;5035611;28;20025;-85
2023/08/01 08:33:23;;;;;;;8.40;4.18;;;;;;;19.52;88.17;99882.22;5035623;28;20037;-84
2023/08/01 08:35:49;;;;;;;9.32;4.30;;;;;;;19.62;88.86;99896.19;5017944;28;20124;-85
2023/08/01 08:38:20;;;;;;;10.95;4.40;;;;;;;19.54;88.75;99884.88;5033608;28;20280;-85
2023/08/01 08:41:11;;;;;;;9.85;4.57;;;;;;;19.42;89.49;99878.19;5035520;28;20088;-85
2023/08/01 08:43:38;;;;;;;8.33;4.47;;;;;;;19.36;91.83;99874.91;5035181;28;20029;-85
2023/08/01 08:46:18;;;;;;;;;;;;;;;;;;;;;
2023/08/01 08:49:04;;;;;;;12.35;4.68;;;;;;;18.84;95.89;99883.19;5035096;28;20020;-85
2023/08/01 08:51:35;;;;;;;13.60;5.00;;;;;;;18.75;96.56;99910.31;5017406;28;20064;-86
2023/08/01 08:54:22;;;;;;;10.30;4.77;;;;;;;18.71;98.94;99914.03;5017472;28;20026;-86
2023/08/01 08:56:57;;;;;;;14.07;5.50;;;;;;;18.50;99.57;99911.22;5034266;28;20029;-85
2023/08/01 08:59:27;;;;;;;11.20;5.15;;;;;;;18.32;100.00;99917.22;5017330;28;20469;-84
2023/08/01 09:01:55;;;;;;;12.27;4.63;;;;;;;18.05;100.00;99911.03;5020934;28;20049;-84
2023/08/01 09:04:47;;;;;;;11.38;4.40;;;;;;;17.76;100.00;99885.31;5034720;28;20025;-84
2023/08/01 09:07:32;;;;;;;;;;;;;;;;;;;;;
2023/08/01 09:10:08;;;;;;;8.07;2.83;;;;;;;17.57;98.18;99903.75;5035249;28;20041;-85
2023/08/01 09:12:44;;;;;;;8.13;2.80;;;;;;;17.65;99.15;99928.41;5033738;28;20404;-86
2023/08/01 09:15:12;;;;;;;6.13;2.47;;;;;;;17.52;99.33;99900.34;5033659;28;20036;-86
2023/08/01 09:18:01;;;;;;;;;;;;;;;;;;;;;
2023/08/01 09:20:32;;;;;;;7.95;3.60;;;;;;;17.50;100.00;99881.69;5034699;28;20044;-86
2023/08/01 09:23:00;;;;;;;7.67;3.20;;;;;;;17.55;99.58;99875.31;5033624;28;20033;-86
2023/08/01 09:28:35;;;;;;;8.10;3.67;;;;;;;17.74;99.53;99901.41;5034484;28;20033;-85
2023/08/01 09:31:03;;;;;;;8.43;4.00;;;;;;;17.79;100.00;99903.94;5034437;28;20410;-86
2023/08/01 09:33:41;;;;;;;10.57;3.90;;;;;;;17.81;100.00;99893.19;5050125;28;20088;-86
2023/08/01 09:36:29;;;;;;;9.95;3.40;;;;;;;17.96;98.45;99947.00;5034301;28;20021;-86
2023/08/01 09:39:15;;;;;;;10.10;3.70;;;;;;;17.52;99.89;99889.66;5034343;28;20473;-86
2023/08/01 09:41:40;;;;;;;9.98;3.47;;;;;;;17.62;100.00;99920.50;5033199;28;20017;-86
2023/08/01 09:44:11;;;;;;;9.95;3.50;;;;;;;17.76;100.00;99966.34;5034132;28;20048;-86
2023/08/01 09:46:36;;;;;;;10.25;3.60;;;;;;;17.72;98.74;99958.47;5034482;28;20116;-86
2023/08/01 09:49:09;;;;;;;9.15;3.40;;;;;;;17.61;100.00;99949.94;5032690;28;20025;-89
2023/08/01 09:51:57;;;;;;;6.95;3.13;;;;;;;17.45;99.59;99939.72;5049500;28;20068;-86
2023/08/01 09:54:27;;;;;;;9.50;3.20;;;;;;;17.27;100.00;99921.63;5032362;28;20040;-85
2023/08/01 09:57:06;;;;;;;8.68;3.17;;;;;;;17.39;99.56;99961.31;5032396;28;20381;-85
2023/08/01 09:59:35;;;;;;;5.78;2.95;;;;;;;16.96;100.00;99919.03;5049266;28;20449;-85
2023/08/01 10:02:12;;;;;;;6.85;3.03;;;;;;;17.15;100.00;99962.06;5042446;28;20057;-85
2023/08/01 10:04:50;;;;;;;10.50;3.60;;;;;;;17.19;100.00;99975.25;5035950;28;20025;-86
2023/08/01 10:07:26;;;;;;;8.57;3.45;;;;;;;16.98;100.00;99930.53;5053609;28;20028;-85
2023/08/01 10:09:58;;;;;;;6.80;3.60;;;;;;;17.13;100.00;99918.50;5053440;28;20035;-86
2023/08/01 10:12:28;;;;;;;10.38;4.28;;;;;;;17.52;100.00;99924.41;5052453;28;20029;-86
2023/08/01 10:14:57;;;;;;;11.57;4.05;;;;;;;18.18;100.00;99959.63;5053752;28;20445;-86
2023/08/01 10:17:27;;;;;;;10.32;4.60;;;;;;;18.76;100.00;99977.19;5053551;28;20025;-86
2023/08/01 10:19:58;;;;;;;12.55;4.25;;;;;;;19.15;100.00;99965.03;5053690;28;20024;-86
2023/08/01 10:22:32;;;;;;;10.07;3.92;;;;;;;19.40;100.00;99951.53;5053191;28;20054;-86
2023/08/01 10:25:06;;;;;;;9.63;3.97;;;;;;;19.41;98.39;99932.72;5053113;28;20036;-85
2023/08/01 10:27:37;;;;;;;11.23;4.07;;;;;;;19.40;95.84;99935.44;5053573;28;20032;-85
2023/08/01 10:30:10;;;;;;;12.55;4.07;;;;;;;19.34;94.66;99933.91;5053824;28;20059;-85
2023/08/01 10:32:44;;;;;;;13.43;4.43;;;;;;;19.16;93.70;99929.28;5053190;28;20033;-89
2023/08/01 10:35:16;;;;;;;9.63;4.00;;;;;;;19.11;94.10;99947.34;5053023;28;20398;-85
2023/08/01 10:37:53;;;;;;;;;;;;;;;;;;;;;
2023/08/01 10:40:42;;;;;;;;;;;;;;;;;;;;;
2023/08/01 10:43:21;;;;;;;8.88;3.63;;;;;;;18.97;95.84;99930.00;5053250;28;20029;-83
2023/08/01 10:45:47;;;;;;;12.77;4.00;;;;;;;19.13;93.92;99958.84;5035267;28;20429;-85
2023/08/01 10:48:16;;;;;;;11.45;3.90;;;;;;;19.27;93.87;99964.53;5052781;28;20035;-85
2023/08/01 10:50:41;;;;;;;11.85;3.92;;;;;;;19.18;93.95;99924.72;5035083;28;20033;-86
2023/08/01 10:53:10;;;;;;;11.63;3.95;;;;;;;19.37;91.39;99932.91;5035101;28;20052;-85
2023/08/01 10:55:48;;;;;;;9.70;3.63;;;;;;;19.58;90.25;99950.81;5052608;28;20059;-85
2023/08/01 10:58:17;;;;;;;8.38;3.67;;;;;;;19.72;89.09;99971.72;5052977;28;20033;-85
2023/08/01 11:00:53;;;;;;;11.60;3.65;;;;;;;19.88;90.39;99993.41;5052646;28;20025;-85
2023/08/01 11:03:21;;;;;;;9.10;3.45;;;;;;;19.71;89.00;99981.56;5052833;28;20037;-86
2023/08/01 11:05:57;;;;;;;14.80;3.70;;;;;;;19.40;88.67;99946.16;5052655;28;20487;-85
2023/08/01 11:08:22;;;;;;;10.13;3.33;;;;;;;19.32;88.11;99953.66;5057177;28;20029;-85
2023/08/01 11:10:58;;;;;;;10.07;3.60;;;;;;;19.65;88.48;100010.41;5058211;28;20029;-85
2023/08/01 11:13:36;;;;;;;8.95;3.30;;;;;;;19.48;88.35;99973.53;5040335;28;20043;-85
2023/08/01 11:16:05;;;;;;;10.50;3.53;;;;;;;19.39;89.54;99949.78;5058177;28;20025;-86
2023/08/01 11:18:55;;;;;;;;;;;;;;;;;;;;;
2023/08/01 11:21:35;;;;;;;9.27;3.40;;;;;;;19.20;87.41;99950.53;5057640;28;20025;-85
2023/08/01 11:24:08;;;;;;;12.25;3.50;;;;;;;19.14;88.96;99974.88;5039297;28;20122;-85
2023/08/01 11:26:43;;;;;;;11.55;3.72;;;;;;;19.08;89.92;99959.03;5055579;28;20436;-85
2023/08/01 11:29:13;;;;;;;11.02;3.58;;;;;;;19.14;89.45;99957.91;5056766;28;20184;-85
2023/08/01 11:31:41;;;;;;;13.35;3.80;;;;;;;19.32;88.48;99997.41;5056679;28;20035;-85
2023/08/01 11:34:10;;;;;;;9.52;3.70;;;;;;;19.17;88.23;99965.84;5056560;28;20043;-85
2023/08/01 11:36:46;;;;;;;13.85;3.90;;;;;;;19.25;87.54;99971.75;5056143;28;20024;-85
2023/08/01 11:39:22;;;;;;;11.20;3.78;;;;;;;19.39;85.16;99989.97;5056454;28;20028;-85
2023/08/01 11:42:04;;;;;;;;;;;;;;;;;;;;;
2023/08/01 11:44:35;;;;;;;9.90;3.25;;;;;;;19.41;84.20;99983.63;5056292;28;20058;-86
2023/08/01 11:47:03;;;;;;;10.25;3.75;;;;;;;19.62;85.12;100030.19;5038616;28;20388;-85
2023/08/01 11:49:34;;;;;;;10.23;3.50;;;;;;;19.54;85.59;100023.34;5056556;28;20052;-85
2023/08/01 11:52:02;;;;;;;7.13;3.17;;;;;;;19.52;84.56;100013.53;5038559;28;20044;-87
2023/08/01 11:54:28;;;;;;;8.25;3.13;;;;;;;19.66;84.51;100023.78;5056054;28;20083;-85
2023/08/01 11:57:00;;;;;;;11.20;3.53;;;;;;;19.85;82.54;100026.56;5038426;28;20025;-86
2023/08/01 11:59:26;;;;;;;7.93;2.70;;;;;;;20.02;80.50;100028.56;5056076;28;20021;-84
2023/08/01 12:01:56;;;;;;;8.70;2.97;;;;;;;20.56;82.50;100039.78;5038083;28;20067;-84
2023/08/01 12:04:28;;;;;;;10.32;3.33;;;;;;;20.89;77.35;100021.28;5055981;28;20041;-84
2023/08/01 12:06:56;;;;;;;8.57;2.70;;;;;;;21.09;76.18;100037.38;5055195;28;20033;-85
2023/08/01 12:09:40;;;;;;;10.20;3.00;;;;;;;21.27;76.00;100011.47;5055714;28;20024;-83
2023/08/01 12:12:16;;;;;;;6.28;2.80;;;;;;;21.44;74.34;100000.81;5038229;28;20465;-85
2023/08/01 12:14:47;;;;;;;10.57;3.17;;;;;;;21.56;74.69;99999.38;5055606;28;20057;-85
2023/08/01 12:17:21;;;;;;;10.05;2.80;;;;;;;21.51;72.94;100001.41;5057508;28;20021;-85
2023/08/01 12:19:50;;;;;;;9.63;3.28;;;;;;;21.37;72.57;99985.06;5057805;28;20107;-87
2023/08/01 12:22:39;;;;;;;9.80;3.00;;;;;;;21.29;71.81;99989.91;5040863;28;20021;-87
2023/08/01 12:25:12;;;;;;;6.85;2.75;;;;;;;21.05;71.04;99990.09;5042034;28;20033;-89
2023/08/01 12:27:41;;;;;;;10.10;2.80;;;;;;;21.28;71.94;100032.00;5041830;28;20067;-87
2023/08/01 12:30:48;;;;;;;7.13;2.70;;;;;;;21.05;71.03;100003.53;5062286;28;20052;-85
2023/08/01 12:33:16;;;;;;;7.05;3.30;;;;;;;21.33;68.80;99991.56;4997550;28;20044;-85
2023/08/01 12:35:42;;;;;;;7.25;2.70;;;;;;;21.80;70.06;100034.06;5069568;28;20025;-87
2023/08/01 12:38:15;;;;;;;10.60;2.20;;;;;;;22.00;64.52;100017.84;5070078;28;20029;-86
2023/08/01 12:40:53;;;;;;;8.35;2.80;;;;;;;22.28;62.77;100046.97;5070561;28;20021;-86
2023/08/01 12:43:21;;;;;;;9.48;2.67;;;;;;;22.45;63.72;100038.03;5033845;28;20029;-86
2023/08/01 12:45:47;;;;;;;6.88;2.70;;;;;;;22.47;63.03;100007.38;5065832;28;20041;-86
2023/08/01 12:48:16;;;;;;;8.20;2.70;;;;;;;22.67;62.42;100029.72;5064455;28;20029;-86
2023/08/01 12:51:00;;;;;;;5.90;2.63;;;;;;;22.27;63.94;99979.75;5061070;28;20095;-87